sensor_id;sensor_type;location;lat;lon;timestamp;temperature;humidity
15997;DHT22;8103;51.340;12.326;2023-01-15T00:02:06;9.90;99.90
15997;DHT22;8103;51.340;12.326;2023-01-15T00:04:33;9.90;99.90
15997;DHT22;8103;51.340;12.326;2023-01-15T00:07:00;9.90;99.90
15997;DHT22;8103;51.340;12.326;2023-01-15T00:09:27;9.90;99.90
15997;DHT22;8103;51.340;12.326;2023-01-15T00:11:54;9.90;99.90
15997;DHT22;8103;51.340;12.326;2023-01-15T00:14:21;9.90;99.90
15997;DHT22;8103;51.340;12.326;2023-01-15T00:16:51;9.90;99.90
15997;DHT22;8103;51.340;12.326;2023-01-15T00:19:18;9.90;99.90
15997;DHT22;8103;51.340;12.326;2023-01-15T00:21:45;9.90;99.90
15997;DHT22;8103;51.340;12.326;2023-01-15T00:24:12;9.90;99.90
15997;DHT22;8103;51.340;12.326;2023-01-15T00:26:57;9.90;99.90
15997;DHT22;8103;51.340;12.326;2023-01-15T00:29:43;9.80;99.90
15997;DHT22;8103;51.340;12.326;2023-01-15T00:32:10;9.80;99.90
15997;DHT22;8103;51.340;12.326;2023-01-15T00:34:36;9.80;99.90
15997;DHT22;8103;51.340;12.326;2023-01-15T00:37:03;9.80;99.90
15997;DHT22;8103;51.340;12.326;2023-01-15T00:39:30;9.80;99.90
15997;DHT22;8103;51.340;12.326;2023-01-15T00:41:57;9.70;99.90
15997;DHT22;8103;51.340;12.326;2023-01-15T00:44:24;9.70;99.90
15997;DHT22;8103;51.340;12.326;2023-01-15T00:46:50;9.70;99.90
15997;DHT22;8103;51.340;12.326;2023-01-15T00:49:17;9.70;99.90
15997;DHT22;8103;51.340;12.326;2023-01-15T00:51:44;9.70;99.90
15997;DHT22;8103;51.340;12.326;2023-01-15T00:54:12;9.70;99.90
15997;DHT22;8103;51.340;12.326;2023-01-15T00:56:38;9.70;99.90
15997;DHT22;8103;51.340;12.326;2023-01-15T00:59:05;9.70;99.90
15997;DHT22;8103;51.340;12.326;2023-01-15T01:01:32;9.70;99.90
15997;DHT22;8103;51.340;12.326;2023-01-15T01:04:00;9.80;99.90
15997;DHT22;8103;51.340;12.326;2023-01-15T01:06:28;9.80;99.90
15997;DHT22;8103;51.340;12.326;2023-01-15T01:08:55;9.80;99.90
15997;DHT22;8103;51.340;12.326;2023-01-15T01:11:24;9.80;99.90
15997;DHT22;8103;51.340;12.326;2023-01-15T01:13:55;9.80;99.90
15997;DHT22;8103;51.340;12.326;2023-01-15T01:16:29;9.90;99.90
15997;DHT22;8103;51.340;12.326;2023-01-15T01:19:07;9.90;99.90
15997;DHT22;8103;51.340;12.326;2023-01-15T01:21:37;9.90;99.90
15997;DHT22;8103;51.340;12.326;2023-01-15T01:24:05;9.90;99.90
15997;DHT22;8103;51.340;12.326;2023-01-15T01:26:34;9.90;99.90
15997;DHT22;8103;51.340;12.326;2023-01-15T01:29:01;10.00;99.90
15997;DHT22;8103;51.340;12.326;2023-01-15T01:31:28;10.00;99.90
15997;DHT22;8103;51.340;12.326;2023-01-15T01:33:57;10.00;99.90
15997;DHT22;8103;51.340;12.326;2023-01-15T01:36:27;10.00;99.90
15997;DHT22;8103;51.340;12.326;2023-01-15T01:38:57;10.00;99.90
15997;DHT22;8103;51.340;12.326;2023-01-15T01:41:25;10.00;99.90
15997;DHT22;8103;51.340;12.326;2023-01-15T01:44:04;10.10;99.90
15997;DHT22;8103;51.340;12.326;2023-01-15T01:46:35;10.10;99.90
15997;DHT22;8103;51.340;12.326;2023-01-15T01:49:09;10.10;99.90
15997;DHT22;8103;51.340;12.326;2023-01-15T01:51:48;10.10;99.90
15997;DHT22;8103;51.340;12.326;2023-01-15T01:54:23;10.20;99.90
15997;DHT22;8103;51.340;12.326;2023-01-15T01:56:52;10.20;99.90
15997;DHT22;8103;51.340;12.326;2023-01-15T01:59:20;10.20;99.90
15997;DHT22;8103;51.340;12.326;2023-01-15T02:01:50;10.20;99.90
15997;DHT22;8103;51.340;12.326;2023-01-15T02:04:21;10.20;99.90
15997;DHT22;8103;51.340;12.326;2023-01-15T02:06:51;10.20;99.90
15997;DHT22;8103;51.340;12.326;2023-01-15T02:09:19;10.20;99.90
15997;DHT22;8103;51.340;12.326;2023-01-15T02:11:46;10.20;99.90
15997;DHT22;8103;51.340;12.326;2023-01-15T02:14:36;10.20;99.90
15997;DHT22;8103;51.340;12.326;2023-01-15T02:17:14;10.20;99.90
15997;DHT22;8103;51.340;12.326;2023-01-15T02:20:00;10.20;99.90
15997;DHT22;8103;51.340;12.326;2023-01-15T02:22:53;10.20;99.90
15997;DHT22;8103;51.340;12.326;2023-01-15T02:28:23;10.20;99.90
15997;DHT22;8103;51.340;12.326;2023-01-15T02:31:15;10.20;99.90
15997;DHT22;8103;51.340;12.326;2023-01-15T02:34:13;10.30;99.90
15997;DHT22;8103;51.340;12.326;2023-01-15T02:37:00;10.30;99.90
15997;DHT22;8103;51.340;12.326;2023-01-15T02:39:34;10.30;99.90
15997;DHT22;8103;51.340;12.326;2023-01-15T02:42:07;10.30;99.90
15997;DHT22;8103;51.340;12.326;2023-01-15T02:44:41;10.30;99.90
15997;DHT22;8103;51.340;12.326;2023-01-15T02:47:13;10.30;99.90
15997;DHT22;8103;51.340;12.326;2023-01-15T02:49:45;10.20;99.90
15997;DHT22;8103;51.340;12.326;2023-01-15T02:52:18;10.20;99.90
15997;DHT22;8103;51.340;12.326;2023-01-15T02:55:03;10.20;99.90
15997;DHT22;8103;51.340;12.326;2023-01-15T02:57:37;10.30;99.90
15997;DHT22;8103;51.340;12.326;2023-01-15T03:00:10;10.30;99.90
15997;DHT22;8103;51.340;12.326;2023-01-15T03:02:52;10.20;99.90
15997;DHT22;8103;51.340;12.326;2023-01-15T03:05:34;10.00;99.90
15997;DHT22;8103;51.340;12.326;2023-01-15T03:08:07;9.90;99.90
15997;DHT22;8103;51.340;12.326;2023-01-15T03:10:48;9.80;99.90
15997;DHT22;8103;51.340;12.326;2023-01-15T03:16:39;9.60;99.90
15997;DHT22;8103;51.340;12.326;2023-01-15T03:19:26;9.60;99.90
15997;DHT22;8103;51.340;12.326;2023-01-15T03:22:04;9.60;99.90
15997;DHT22;8103;51.340;12.326;2023-01-15T03:24:48;9.60;99.90
15997;DHT22;8103;51.340;12.326;2023-01-15T03:27:19;9.60;99.90
15997;DHT22;8103;51.340;12.326;2023-01-15T03:29:50;9.60;99.90
15997;DHT22;8103;51.340;12.326;2023-01-15T03:32:21;9.60;99.90
15997;DHT22;8103;51.340;12.326;2023-01-15T03:34:51;9.50;99.90
15997;DHT22;8103;51.340;12.326;2023-01-15T03:37:21;9.60;99.90
15997;DHT22;8103;51.340;12.326;2023-01-15T03:39:51;9.60;99.90
15997;DHT22;8103;51.340;12.326;2023-01-15T03:42:28;9.70;99.90
15997;DHT22;8103;51.340;12.326;2023-01-15T03:45:09;9.70;99.90
15997;DHT22;8103;51.340;12.326;2023-01-15T03:48:01;9.80;99.90
15997;DHT22;8103;51.340;12.326;2023-01-15T03:53:43;9.90;99.90
15997;DHT22;8103;51.340;12.326;2023-01-15T03:56:28;10.00;99.90
15997;DHT22;8103;51.340;12.326;2023-01-15T03:59:15;10.00;99.90
15997;DHT22;8103;51.340;12.326;2023-01-15T04:01:47;10.10;99.90
15997;DHT22;8103;51.340;12.326;2023-01-15T04:04:16;10.10;99.90
15997;DHT22;8103;51.340;12.326;2023-01-15T04:06:44;10.20;99.90
15997;DHT22;8103;51.340;12.326;2023-01-15T04:09:12;10.20;99.90
15997;DHT22;8103;51.340;12.326;2023-01-15T04:11:40;10.20;99.90
15997;DHT22;8103;51.340;12.326;2023-01-15T04:14:09;10.10;99.90
15997;DHT22;8103;51.340;12.326;2023-01-15T04:16:39;10.00;99.90
15997;DHT22;8103;51.340;12.326;2023-01-15T04:19:06;9.90;99.90
15997;DHT22;8103;51.340;12.326;2023-01-15T04:21:34;9.70;99.90
15997;DHT22;8103;51.340;12.326;2023-01-15T04:24:00;9.60;99.90
15997;DHT22;8103;51.340;12.326;2023-01-15T04:26:27;9.40;99.90
15997;DHT22;8103;51.340;12.326;2023-01-15T04:28:55;9.30;99.90
15997;DHT22;8103;51.340;12.326;2023-01-15T04:31:22;9.20;99.90
15997;DHT22;8103;51.340;12.326;2023-01-15T04:33:49;9.20;99.90
15997;DHT22;8103;51.340;12.326;2023-01-15T04:36:16;9.10;99.90
15997;DHT22;8103;51.340;12.326;2023-01-15T04:38:43;9.10;99.90
15997;DHT22;8103;51.340;12.326;2023-01-15T04:41:10;9.00;99.90
15997;DHT22;8103;51.340;12.326;2023-01-15T04:43:55;9.00;99.90
15997;DHT22;8103;51.340;12.326;2023-01-15T04:46:37;9.00;99.90
15997;DHT22;8103;51.340;12.326;2023-01-15T04:49:07;9.00;99.90
15997;DHT22;8103;51.340;12.326;2023-01-15T04:51:36;8.90;99.90
15997;DHT22;8103;51.340;12.326;2023-01-15T04:54:06;8.70;99.90
15997;DHT22;8103;51.340;12.326;2023-01-15T04:56:40;8.50;99.90
15997;DHT22;8103;51.340;12.326;2023-01-15T04:59:09;8.20;99.90
15997;DHT22;8103;51.340;12.326;2023-01-15T05:01:36;8.00;99.90
15997;DHT22;8103;51.340;12.326;2023-01-15T05:04:04;7.90;99.90
15997;DHT22;8103;51.340;12.326;2023-01-15T05:06:31;7.70;99.90
15997;DHT22;8103;51.340;12.326;2023-01-15T05:08:59;7.60;99.90
15997;DHT22;8103;51.340;12.326;2023-01-15T05:11:27;7.40;99.90
15997;DHT22;8103;51.340;12.326;2023-01-15T05:13:54;7.30;99.90
15997;DHT22;8103;51.340;12.326;2023-01-15T05:16:23;7.20;99.90
15997;DHT22;8103;51.340;12.326;2023-01-15T05:18:53;7.20;99.90
15997;DHT22;8103;51.340;12.326;2023-01-15T05:21:32;7.10;99.90
15997;DHT22;8103;51.340;12.326;2023-01-15T05:24:03;7.00;99.90
15997;DHT22;8103;51.340;12.326;2023-01-15T05:26:34;7.00;99.90
15997;DHT22;8103;51.340;12.326;2023-01-15T05:29:02;7.00;99.90
15997;DHT22;8103;51.340;12.326;2023-01-15T05:31:30;7.00;99.90
15997;DHT22;8103;51.340;12.326;2023-01-15T05:33:59;6.90;99.90
15997;DHT22;8103;51.340;12.326;2023-01-15T05:36:28;6.90;99.90
15997;DHT22;8103;51.340;12.326;2023-01-15T05:38:57;6.90;99.90
15997;DHT22;8103;51.340;12.326;2023-01-15T05:41:28;6.90;99.90
15997;DHT22;8103;51.340;12.326;2023-01-15T05:44:20;6.90;99.90
15997;DHT22;8103;51.340;12.326;2023-01-15T05:46:58;6.90;99.90
15997;DHT22;8103;51.340;12.326;2023-01-15T05:49:33;6.80;99.90
15997;DHT22;8103;51.340;12.326;2023-01-15T05:52:00;6.80;99.90
15997;DHT22;8103;51.340;12.326;2023-01-15T05:54:30;6.80;99.90
15997;DHT22;8103;51.340;12.326;2023-01-15T05:56:58;6.80;99.90
15997;DHT22;8103;51.340;12.326;2023-01-15T05:59:28;6.80;99.90
15997;DHT22;8103;51.340;12.326;2023-01-15T06:01:56;6.80;99.90
15997;DHT22;8103;51.340;12.326;2023-01-15T06:04:23;6.80;99.90
15997;DHT22;8103;51.340;12.326;2023-01-15T06:06:52;6.80;99.90
15997;DHT22;8103;51.340;12.326;2023-01-15T06:09:20;6.80;99.90
15997;DHT22;8103;51.340;12.326;2023-01-15T06:11:49;6.80;99.90
15997;DHT22;8103;51.340;12.326;2023-01-15T06:14:16;6.80;99.90
15997;DHT22;8103;51.340;12.326;2023-01-15T06:16:43;6.80;99.90
15997;DHT22;8103;51.340;12.326;2023-01-15T06:19:11;6.80;99.90
15997;DHT22;8103;51.340;12.326;2023-01-15T06:21:39;6.80;99.90
15997;DHT22;8103;51.340;12.326;2023-01-15T06:24:06;6.70;99.90
15997;DHT22;8103;51.340;12.326;2023-01-15T06:26:34;6.70;99.90
15997;DHT22;8103;51.340;12.326;2023-01-15T06:29:01;6.70;99.90
15997;DHT22;8103;51.340;12.326;2023-01-15T06:31:28;6.70;99.90
15997;DHT22;8103;51.340;12.326;2023-01-15T06:33:55;6.70;99.90
15997;DHT22;8103;51.340;12.326;2023-01-15T06:36:24;6.70;99.90
15997;DHT22;8103;51.340;12.326;2023-01-15T06:38:52;6.60;99.90
15997;DHT22;8103;51.340;12.326;2023-01-15T06:41:24;6.60;99.90
15997;DHT22;8103;51.340;12.326;2023-01-15T06:44:16;6.60;99.90
15997;DHT22;8103;51.340;12.326;2023-01-15T06:47:14;6.60;99.90
15997;DHT22;8103;51.340;12.326;2023-01-15T06:49:52;6.60;99.90
15997;DHT22;8103;51.340;12.326;2023-01-15T06:52:22;6.60;99.90
15997;DHT22;8103;51.340;12.326;2023-01-15T06:54:50;6.60;99.90
15997;DHT22;8103;51.340;12.326;2023-01-15T06:57:17;6.50;99.90
15997;DHT22;8103;51.340;12.326;2023-01-15T06:59:48;6.60;99.90
15997;DHT22;8103;51.340;12.326;2023-01-15T07:02:15;6.50;99.90
15997;DHT22;8103;51.340;12.326;2023-01-15T07:04:44;6.60;99.90
15997;DHT22;8103;51.340;12.326;2023-01-15T07:07:11;6.60;99.90
15997;DHT22;8103;51.340;12.326;2023-01-15T07:09:39;6.60;99.90
15997;DHT22;8103;51.340;12.326;2023-01-15T07:12:06;6.50;99.90
15997;DHT22;8103;51.340;12.326;2023-01-15T07:14:32;6.50;99.90
15997;DHT22;8103;51.340;12.326;2023-01-15T07:16:59;6.50;99.90
15997;DHT22;8103;51.340;12.326;2023-01-15T07:19:26;6.50;99.90
15997;DHT22;8103;51.340;12.326;2023-01-15T07:21:53;6.40;99.90
15997;DHT22;8103;51.340;12.326;2023-01-15T07:24:20;6.40;99.90
15997;DHT22;8103;51.340;12.326;2023-01-15T07:26:47;6.40;99.90
15997;DHT22;8103;51.340;12.326;2023-01-15T07:29:14;6.30;99.90
15997;DHT22;8103;51.340;12.326;2023-01-15T07:31:41;6.30;99.90
15997;DHT22;8103;51.340;12.326;2023-01-15T07:34:08;6.30;99.90
15997;DHT22;8103;51.340;12.326;2023-01-15T07:36:36;6.30;99.90
15997;DHT22;8103;51.340;12.326;2023-01-15T07:39:04;6.30;99.90
15997;DHT22;8103;51.340;12.326;2023-01-15T07:41:32;6.20;99.90
15997;DHT22;8103;51.340;12.326;2023-01-15T07:44:17;6.20;99.90
15997;DHT22;8103;51.340;12.326;2023-01-15T07:47:03;6.20;99.90
15997;DHT22;8103;51.340;12.326;2023-01-15T07:49:59;6.20;99.90
15997;DHT22;8103;51.340;12.326;2023-01-15T07:52:26;6.20;99.90
15997;DHT22;8103;51.340;12.326;2023-01-15T07:54:53;6.20;99.90
15997;DHT22;8103;51.340;12.326;2023-01-15T07:57:21;6.20;99.90
15997;DHT22;8103;51.340;12.326;2023-01-15T07:59:49;6.20;99.90
15997;DHT22;8103;51.340;12.326;2023-01-15T08:02:16;6.20;99.90
15997;DHT22;8103;51.340;12.326;2023-01-15T08:04:45;6.20;99.90
15997;DHT22;8103;51.340;12.326;2023-01-15T08:07:14;6.20;99.90
15997;DHT22;8103;51.340;12.326;2023-01-15T08:09:41;6.20;99.90
15997;DHT22;8103;51.340;12.326;2023-01-15T08:12:09;6.20;99.90
15997;DHT22;8103;51.340;12.326;2023-01-15T08:14:55;6.20;99.90
15997;DHT22;8103;51.340;12.326;2023-01-15T08:17:44;6.10;99.90
15997;DHT22;8103;51.340;12.326;2023-01-15T08:20:18;6.10;99.90
15997;DHT22;8103;51.340;12.326;2023-01-15T08:22:46;6.10;99.90
15997;DHT22;8103;51.340;12.326;2023-01-15T08:25:16;6.10;99.90
15997;DHT22;8103;51.340;12.326;2023-01-15T08:27:45;6.10;99.90
15997;DHT22;8103;51.340;12.326;2023-01-15T08:30:19;6.10;99.90
15997;DHT22;8103;51.340;12.326;2023-01-15T08:32:47;6.10;99.90
15997;DHT22;8103;51.340;12.326;2023-01-15T08:35:14;6.10;99.90
15997;DHT22;8103;51.340;12.326;2023-01-15T08:37:42;6.10;99.90
15997;DHT22;8103;51.340;12.326;2023-01-15T08:40:10;6.10;99.90
15997;DHT22;8103;51.340;12.326;2023-01-15T08:42:38;6.10;99.90
15997;DHT22;8103;51.340;12.326;2023-01-15T08:45:05;6.10;99.90
15997;DHT22;8103;51.340;12.326;2023-01-15T08:47:33;6.10;99.90
15997;DHT22;8103;51.340;12.326;2023-01-15T08:50:00;6.10;99.90
15997;DHT22;8103;51.340;12.326;2023-01-15T08:52:30;6.10;99.90
15997;DHT22;8103;51.340;12.326;2023-01-15T08:54:57;6.20;99.90
15997;DHT22;8103;51.340;12.326;2023-01-15T08:57:26;6.20;99.90
15997;DHT22;8103;51.340;12.326;2023-01-15T08:59:52;6.30;99.90
15997;DHT22;8103;51.340;12.326;2023-01-15T09:02:19;6.30;99.90
15997;DHT22;8103;51.340;12.326;2023-01-15T09:04:46;6.30;99.90
15997;DHT22;8103;51.340;12.326;2023-01-15T09:07:13;6.40;99.90
15997;DHT22;8103;51.340;12.326;2023-01-15T09:09:40;6.50;99.90
15997;DHT22;8103;51.340;12.326;2023-01-15T09:12:09;6.50;99.90
15997;DHT22;8103;51.340;12.326;2023-01-15T09:14:36;6.50;99.90
15997;DHT22;8103;51.340;12.326;2023-01-15T09:17:22;6.50;99.90
15997;DHT22;8103;51.340;12.326;2023-01-15T09:19:48;6.50;99.90
15997;DHT22;8103;51.340;12.326;2023-01-15T09:22:15;6.50;99.90
15997;DHT22;8103;51.340;12.326;2023-01-15T09:24:42;6.50;99.90
15997;DHT22;8103;51.340;12.326;2023-01-15T09:27:11;6.50;99.90
15997;DHT22;8103;51.340;12.326;2023-01-15T09:29:37;6.50;99.90
15997;DHT22;8103;51.340;12.326;2023-01-15T09:32:05;6.60;99.90
15997;DHT22;8103;51.340;12.326;2023-01-15T09:34:33;6.60;99.90
15997;DHT22;8103;51.340;12.326;2023-01-15T09:37:00;6.70;99.90
15997;DHT22;8103;51.340;12.326;2023-01-15T09:39:26;6.70;99.90
15997;DHT22;8103;51.340;12.326;2023-01-15T09:42:11;6.80;99.90
15997;DHT22;8103;51.340;12.326;2023-01-15T09:45:19;6.80;99.90
15997;DHT22;8103;51.340;12.326;2023-01-15T09:48:04;6.80;99.90
15997;DHT22;8103;51.340;12.326;2023-01-15T09:51:07;6.90;99.90
15997;DHT22;8103;51.340;12.326;2023-01-15T09:56:49;7.00;99.90
15997;DHT22;8103;51.340;12.326;2023-01-15T09:59:31;7.10;99.90
15997;DHT22;8103;51.340;12.326;2023-01-15T10:05:22;7.10;99.90
15997;DHT22;8103;51.340;12.326;2023-01-15T10:08:11;7.20;99.90
15997;DHT22;8103;51.340;12.326;2023-01-15T10:10:47;7.20;99.90
15997;DHT22;8103;51.340;12.326;2023-01-15T10:16:08;7.40;99.90
15997;DHT22;8103;51.340;12.326;2023-01-15T10:18:37;7.40;99.90
15997;DHT22;8103;51.340;12.326;2023-01-15T10:21:26;7.40;99.90
15997;DHT22;8103;51.340;12.326;2023-01-15T10:24:15;7.50;99.90
15997;DHT22;8103;51.340;12.326;2023-01-15T10:26:57;7.60;99.90
15997;DHT22;8103;51.340;12.326;2023-01-15T10:29:43;7.60;99.90
15997;DHT22;8103;51.340;12.326;2023-01-15T10:37:46;7.50;99.90
15997;DHT22;8103;51.340;12.326;2023-01-15T10:43:41;7.50;99.90
15997;DHT22;8103;51.340;12.326;2023-01-15T10:46:18;7.50;99.90
15997;DHT22;8103;51.340;12.326;2023-01-15T10:51:45;7.60;99.90
15997;DHT22;8103;51.340;12.326;2023-01-15T10:54:28;7.60;99.90
15997;DHT22;8103;51.340;12.326;2023-01-15T10:57:11;7.70;99.90
15997;DHT22;8103;51.340;12.326;2023-01-15T11:00:00;7.90;99.90
15997;DHT22;8103;51.340;12.326;2023-01-15T11:02:36;8.00;99.90
15997;DHT22;8103;51.340;12.326;2023-01-15T11:05:13;8.10;99.90
15997;DHT22;8103;51.340;12.326;2023-01-15T11:07:47;8.30;99.90
15997;DHT22;8103;51.340;12.326;2023-01-15T11:10:36;8.50;99.60
15997;DHT22;8103;51.340;12.326;2023-01-15T11:13:20;8.70;98.70
15997;DHT22;8103;51.340;12.326;2023-01-15T11:16:21;8.80;98.20
15997;DHT22;8103;51.340;12.326;2023-01-15T11:19:05;8.90;97.80
15997;DHT22;8103;51.340;12.326;2023-01-15T11:22:18;9.00;97.30
15997;DHT22;8103;51.340;12.326;2023-01-15T11:24:54;9.00;97.00
15997;DHT22;8103;51.340;12.326;2023-01-15T11:27:25;8.90;97.20
15997;DHT22;8103;51.340;12.326;2023-01-15T11:29:57;8.90;97.30
15997;DHT22;8103;51.340;12.326;2023-01-15T11:32:32;8.80;97.10
15997;DHT22;8103;51.340;12.326;2023-01-15T11:37:33;8.80;97.10
15997;DHT22;8103;51.340;12.326;2023-01-15T11:40:01;8.80;97.10
15997;DHT22;8103;51.340;12.326;2023-01-15T11:42:37;8.80;97.10
15997;DHT22;8103;51.340;12.326;2023-01-15T11:45:23;8.80;97.10
15997;DHT22;8103;51.340;12.326;2023-01-15T11:48:15;8.80;97.20
15997;DHT22;8103;51.340;12.326;2023-01-15T11:51:10;8.70;96.80
15997;DHT22;8103;51.340;12.326;2023-01-15T11:53:47;8.50;96.90
15997;DHT22;8103;51.340;12.326;2023-01-15T11:56:21;8.30;97.30
15997;DHT22;8103;51.340;12.326;2023-01-15T11:58:55;8.10;97.60
15997;DHT22;8103;51.340;12.326;2023-01-15T12:01:31;8.00;97.50
15997;DHT22;8103;51.340;12.326;2023-01-15T12:04:20;7.80;97.70
15997;DHT22;8103;51.340;12.326;2023-01-15T12:07:13;7.70;98.20
15997;DHT22;8103;51.340;12.326;2023-01-15T12:13:04;7.60;98.40
15997;DHT22;8103;51.340;12.326;2023-01-15T12:18:52;7.60;98.40
15997;DHT22;8103;51.340;12.326;2023-01-15T12:21:36;7.60;98.40
15997;DHT22;8103;51.340;12.326;2023-01-15T12:30:18;7.60;98.30
15997;DHT22;8103;51.340;12.326;2023-01-15T12:33:19;7.60;98.20
15997;DHT22;8103;51.340;12.326;2023-01-15T12:36:17;7.60;98.00
15997;DHT22;8103;51.340;12.326;2023-01-15T12:39:02;7.60;97.90
15997;DHT22;8103;51.340;12.326;2023-01-15T12:41:35;7.60;97.70
15997;DHT22;8103;51.340;12.326;2023-01-15T12:45:24;7.60;97.60
15997;DHT22;8103;51.340;12.326;2023-01-15T12:48:04;7.60;97.50
15997;DHT22;8103;51.340;12.326;2023-01-15T12:51:21;7.50;97.70
15997;DHT22;8103;51.340;12.326;2023-01-15T12:54:04;7.40;97.90
15997;DHT22;8103;51.340;12.326;2023-01-15T12:56:52;7.40;97.90
15997;DHT22;8103;51.340;12.326;2023-01-15T12:59:33;7.30;98.10
15997;DHT22;8103;51.340;12.326;2023-01-15T13:02:27;7.30;98.00
15997;DHT22;8103;51.340;12.326;2023-01-15T13:05:26;7.20;98.20
15997;DHT22;8103;51.340;12.326;2023-01-15T13:10:44;7.20;98.40
15997;DHT22;8103;51.340;12.326;2023-01-15T13:13:19;7.20;98.60
15997;DHT22;8103;51.340;12.326;2023-01-15T13:21:53;7.20;99.00
15997;DHT22;8103;51.340;12.326;2023-01-15T13:25:29;7.10;98.90
15997;DHT22;8103;51.340;12.326;2023-01-15T13:28:30;7.00;99.20
15997;DHT22;8103;51.340;12.326;2023-01-15T13:31:20;7.00;99.30
15997;DHT22;8103;51.340;12.326;2023-01-15T13:34:12;7.00;99.50
15997;DHT22;8103;51.340;12.326;2023-01-15T13:36:47;7.10;99.20
15997;DHT22;8103;51.340;12.326;2023-01-15T13:39:20;7.20;99.10
15997;DHT22;8103;51.340;12.326;2023-01-15T13:41:52;7.10;99.10
15997;DHT22;8103;51.340;12.326;2023-01-15T13:44:46;7.10;99.20
15997;DHT22;8103;51.340;12.326;2023-01-15T13:47:22;7.10;99.40
15997;DHT22;8103;51.340;12.326;2023-01-15T13:49:58;7.20;99.20
15997;DHT22;8103;51.340;12.326;2023-01-15T13:52:32;7.20;99.00
15997;DHT22;8103;51.340;12.326;2023-01-15T13:55:19;7.30;98.70
15997;DHT22;8103;51.340;12.326;2023-01-15T13:57:51;7.30;98.50
15997;DHT22;8103;51.340;12.326;2023-01-15T14:00:28;7.30;98.60
15997;DHT22;8103;51.340;12.326;2023-01-15T14:03:02;7.30;98.30
15997;DHT22;8103;51.340;12.326;2023-01-15T14:05:56;7.30;98.40
15997;DHT22;8103;51.340;12.326;2023-01-15T14:08:36;7.30;98.60
15997;DHT22;8103;51.340;12.326;2023-01-15T14:11:33;7.30;98.70
15997;DHT22;8103;51.340;12.326;2023-01-15T14:14:16;7.20;98.60
15997;DHT22;8103;51.340;12.326;2023-01-15T14:20:37;7.20;98.60
15997;DHT22;8103;51.340;12.326;2023-01-15T14:23:25;7.30;98.80
15997;DHT22;8103;51.340;12.326;2023-01-15T14:26:21;7.40;98.00
15997;DHT22;8103;51.340;12.326;2023-01-15T14:32:35;7.40;97.50
15997;DHT22;8103;51.340;12.326;2023-01-15T14:35:19;7.30;97.90
15997;DHT22;8103;51.340;12.326;2023-01-15T14:38:03;7.20;97.90
15997;DHT22;8103;51.340;12.326;2023-01-15T14:40:34;7.10;97.90
15997;DHT22;8103;51.340;12.326;2023-01-15T14:43:08;7.00;97.80
15997;DHT22;8103;51.340;12.326;2023-01-15T14:45:47;6.90;98.00
15997;DHT22;8103;51.340;12.326;2023-01-15T14:51:27;6.70;98.50
15997;DHT22;8103;51.340;12.326;2023-01-15T14:54:06;6.70;98.40
15997;DHT22;8103;51.340;12.326;2023-01-15T14:56:41;6.60;98.60
15997;DHT22;8103;51.340;12.326;2023-01-15T15:02:05;6.50;98.90
15997;DHT22;8103;51.340;12.326;2023-01-15T15:04:47;6.40;98.80
15997;DHT22;8103;51.340;12.326;2023-01-15T15:07:21;6.40;98.90
15997;DHT22;8103;51.340;12.326;2023-01-15T15:10:12;6.30;99.10
15997;DHT22;8103;51.340;12.326;2023-01-15T15:13:00;6.30;99.00
15997;DHT22;8103;51.340;12.326;2023-01-15T15:15:41;6.20;99.10
15997;DHT22;8103;51.340;12.326;2023-01-15T15:21:13;6.10;99.30
15997;DHT22;8103;51.340;12.326;2023-01-15T15:24:06;6.10;99.30
15997;DHT22;8103;51.340;12.326;2023-01-15T15:26:37;6.00;99.20
15997;DHT22;8103;51.340;12.326;2023-01-15T15:31:37;6.00;99.30
15997;DHT22;8103;51.340;12.326;2023-01-15T15:34:12;6.00;99.30
15997;DHT22;8103;51.340;12.326;2023-01-15T15:36:44;6.00;99.40
15997;DHT22;8103;51.340;12.326;2023-01-15T15:39:19;5.90;99.20
15997;DHT22;8103;51.340;12.326;2023-01-15T15:41:53;5.90;99.90
15997;DHT22;8103;51.340;12.326;2023-01-15T15:44:50;5.80;99.70
15997;DHT22;8103;51.340;12.326;2023-01-15T15:47:39;5.80;99.70
15997;DHT22;8103;51.340;12.326;2023-01-15T15:50:32;5.70;99.90
15997;DHT22;8103;51.340;12.326;2023-01-15T15:53:01;5.80;99.90
15997;DHT22;8103;51.340;12.326;2023-01-15T15:55:41;5.60;99.90
15997;DHT22;8103;51.340;12.326;2023-01-15T15:58:18;5.60;99.90
15997;DHT22;8103;51.340;12.326;2023-01-15T16:00:50;5.60;99.90
15997;DHT22;8103;51.340;12.326;2023-01-15T16:06:20;5.50;99.90
15997;DHT22;8103;51.340;12.326;2023-01-15T16:08:57;5.50;99.90
15997;DHT22;8103;51.340;12.326;2023-01-15T16:11:31;5.50;99.90
15997;DHT22;8103;51.340;12.326;2023-01-15T16:18:14;5.40;99.90
15997;DHT22;8103;51.340;12.326;2023-01-15T16:20:46;5.40;99.90
15997;DHT22;8103;51.340;12.326;2023-01-15T16:23:27;5.40;99.90
15997;DHT22;8103;51.340;12.326;2023-01-15T16:30:02;5.30;99.90
15997;DHT22;8103;51.340;12.326;2023-01-15T16:32:32;5.30;99.90
15997;DHT22;8103;51.340;12.326;2023-01-15T16:35:13;5.30;99.90
15997;DHT22;8103;51.340;12.326;2023-01-15T16:37:46;5.30;99.90
15997;DHT22;8103;51.340;12.326;2023-01-15T16:40:30;5.40;99.90
15997;DHT22;8103;51.340;12.326;2023-01-15T16:43:12;5.40;99.90
15997;DHT22;8103;51.340;12.326;2023-01-15T16:46:02;5.40;99.90
15997;DHT22;8103;51.340;12.326;2023-01-15T16:49:16;5.50;99.70
15997;DHT22;8103;51.340;12.326;2023-01-15T16:51:48;5.60;99.70
15997;DHT22;8103;51.340;12.326;2023-01-15T16:57:11;5.60;99.40
15997;DHT22;8103;51.340;12.326;2023-01-15T16:59:58;5.70;99.20
15997;DHT22;8103;51.340;12.326;2023-01-15T17:02:33;5.70;99.20
15997;DHT22;8103;51.340;12.326;2023-01-15T17:05:15;5.60;99.30
15997;DHT22;8103;51.340;12.326;2023-01-15T17:07:47;5.60;99.40
15997;DHT22;8103;51.340;12.326;2023-01-15T17:10:20;5.50;99.40
15997;DHT22;8103;51.340;12.326;2023-01-15T17:12:52;5.50;99.40
15997;DHT22;8103;51.340;12.326;2023-01-15T17:17:53;5.50;99.50
15997;DHT22;8103;51.340;12.326;2023-01-15T17:20:22;5.50;99.50
15997;DHT22;8103;51.340;12.326;2023-01-15T17:22:54;5.50;99.60
15997;DHT22;8103;51.340;12.326;2023-01-15T17:25:31;5.50;99.70
15997;DHT22;8103;51.340;12.326;2023-01-15T17:28:01;5.40;99.80
15997;DHT22;8103;51.340;12.326;2023-01-15T17:30:30;5.50;99.80
15997;DHT22;8103;51.340;12.326;2023-01-15T17:32:59;5.50;99.70
15997;DHT22;8103;51.340;12.326;2023-01-15T17:35:31;5.50;99.90
15997;DHT22;8103;51.340;12.326;2023-01-15T17:37:59;5.50;99.60
15997;DHT22;8103;51.340;12.326;2023-01-15T17:40:26;5.50;99.40
15997;DHT22;8103;51.340;12.326;2023-01-15T17:42:53;5.50;99.30
15997;DHT22;8103;51.340;12.326;2023-01-15T17:45:26;5.50;99.20
15997;DHT22;8103;51.340;12.326;2023-01-15T17:47:57;5.50;99.30
15997;DHT22;8103;51.340;12.326;2023-01-15T17:50:24;5.50;99.20
15997;DHT22;8103;51.340;12.326;2023-01-15T17:53:01;5.60;99.20
15997;DHT22;8103;51.340;12.326;2023-01-15T17:55:28;5.60;99.20
15997;DHT22;8103;51.340;12.326;2023-01-15T17:58:14;5.60;99.20
15997;DHT22;8103;51.340;12.326;2023-01-15T18:01:04;5.60;99.40
15997;DHT22;8103;51.340;12.326;2023-01-15T18:03:56;5.50;99.40
15997;DHT22;8103;51.340;12.326;2023-01-15T18:06:46;5.50;99.60